Time;durP1;ratioP1;P1;durP2;ratioP2;P2;SDS_P1;SDS_P2;PMS_P1;PMS_P2;Temp;Humidity;BMP_temperature;BMP_pressure;BME280_temperature;BME280_humidity;BME280_pressure;Samples;Min_cycle;Max_cycle;Signal;HPM_P1;HPM_P2
2023/06/10 00:01:23;;;;;;;4.83;4.43;;;;;;;14.65;nan;98953.00;5078220;28;20204;-81
2023/06/10 00:03:52;;;;;;;4.87;4.47;;;;;;;14.62;nan;98955.44;5078672;28;20238;-79
2023/06/10 00:06:21;;;;;;;4.73;4.23;;;;;;;14.58;nan;98957.03;5054725;28;20186;-79
2023/06/10 00:08:47;;;;;;;5.20;4.30;;;;;;;14.53;nan;98950.53;5061376;28;20222;-79
2023/06/10 00:11:14;;;;;;;4.77;4.37;;;;;;;14.52;nan;98950.78;5046502;28;20762;-79
2023/06/10 00:13:41;;;;;;;4.57;4.27;;;;;;;14.47;nan;98945.38;5055180;28;20185;-79
2023/06/10 00:16:08;;;;;;;5.57;4.80;;;;;;;14.45;nan;98948.34;5054008;28;20276;-80
2023/06/10 00:18:38;;;;;;;5.07;4.57;;;;;;;14.43;nan;98955.88;5054256;28;20194;-80
2023/06/10 00:21:05;;;;;;;5.10;4.70;;;;;;;14.41;nan;98949.13;5054702;28;20201;-80
2023/06/10 00:23:37;;;;;;;4.87;4.43;;;;;;;14.39;nan;98951.25;5060201;28;20185;-79
2023/06/10 00:26:04;;;;;;;4.97;4.57;;;;;;;14.35;nan;98950.94;5056259;28;20283;-79
2023/06/10 00:28:31;;;;;;;4.70;4.40;;;;;;;14.32;nan;98956.03;5053181;28;20198;-79
2023/06/10 00:30:58;;;;;;;4.87;4.47;;;;;;;14.33;nan;98949.56;5052946;28;20193;-79
2023/06/10 00:33:25;;;;;;;5.50;5.00;;;;;;;14.29;nan;98951.16;5066004;28;20656;-79
2023/06/10 00:35:52;;;;;;;5.53;5.00;;;;;;;14.33;nan;98949.56;5062291;28;20268;-79
2023/06/10 00:38:20;;;;;;;5.17;4.77;;;;;;;14.25;nan;98953.56;5072451;28;20193;-79
2023/06/10 00:40:47;;;;;;;6.37;5.63;;;;;;;14.21;nan;98959.72;5068074;28;20193;-79
2023/06/10 00:43:14;;;;;;;5.20;4.63;;;;;;;14.17;nan;98956.75;5056784;28;20235;-79
2023/06/10 00:45:41;;;;;;;5.57;5.00;;;;;;;14.19;nan;98954.59;5057254;28;20644;-80
2023/06/10 00:48:08;;;;;;;4.97;4.53;;;;;;;14.23;nan;98963.78;5062609;28;20326;-79
2023/06/10 00:50:39;;;;;;;5.10;4.70;;;;;;;14.19;nan;98964.56;5056008;28;20206;-80
2023/06/10 00:53:06;;;;;;;5.10;4.70;;;;;;;14.11;nan;98963.16;5071309;28;20189;-80
2023/06/10 00:55:33;;;;;;;5.03;4.63;;;;;;;14.10;nan;98966.91;5038733;28;20251;-79
2023/06/10 00:58:01;;;;;;;5.50;5.10;;;;;;;14.08;nan;98967.19;5064468;28;20644;-79
2023/06/10 01:00:28;;;;;;;5.63;5.00;;;;;;;14.13;nan;98966.44;5058589;28;20218;-80
2023/06/10 01:02:55;;;;;;;5.33;4.90;;;;;;;14.09;nan;98968.03;5063154;28;20295;-80
2023/06/10 01:05:23;;;;;;;5.07;4.67;;;;;;;14.13;nan;98966.44;5058941;28;20182;-80
2023/06/10 01:08:25;;;;;;;5.13;4.63;;;;;;;14.14;nan;98969.94;5053461;28;20196;-79
2023/06/10 01:10:59;;;;;;;5.30;4.80;;;;;;;14.09;nan;98976.09;5054115;28;20211;-79
2023/06/10 01:13:32;;;;;;;4.73;4.37;;;;;;;14.10;nan;98972.31;5068503;28;20279;-79
2023/06/10 01:15:59;;;;;;;4.40;4.10;;;;;;;14.14;nan;98972.63;5067547;28;20655;-79
2023/06/10 01:18:32;;;;;;;5.50;4.93;;;;;;;14.06;nan;98968.50;5071594;28;20549;-79
2023/06/10 01:20:59;;;;;;;6.67;4.43;;;;;;;13.99;nan;98960.66;5057131;28;20208;-79
2023/06/10 01:23:26;;;;;;;5.23;4.73;;;;;;;13.96;nan;98969.25;5065329;28;20185;-80
2023/06/10 01:26:00;;;;;;;5.53;5.03;;;;;;;13.94;nan;98971.41;5047262;28;20194;-79
2023/06/10 01:28:31;;;;;;;5.57;4.70;;;;;;;13.89;nan;98974.06;5061126;28;20204;-79
2023/06/10 01:31:16;;;;;;;5.30;4.80;;;;;;;13.95;nan;98977.59;5055475;28;20645;-79
2023/06/10 01:33:50;;;;;;;5.60;5.10;;;;;;;13.95;nan;98977.59;5046500;28;20786;-80
2023/06/10 01:36:18;;;;;;;5.30;4.80;;;;;;;13.94;nan;98976.78;5059326;28;20194;-78
2023/06/10 01:38:47;;;;;;;4.67;4.27;;;;;;;13.99;nan;98984.91;5067542;28;20193;-79
2023/06/10 01:41:16;;;;;;;5.27;4.77;;;;;;;13.96;nan;98977.31;5064047;28;20279;-79
2023/06/10 01:43:44;;;;;;;6.37;4.87;;;;;;;13.96;nan;98996.19;5053144;28;20193;-79
2023/06/10 01:46:13;;;;;;;5.50;5.00;;;;;;;13.94;nan;98987.56;5046151;28;20196;-79
2023/06/10 01:48:41;;;;;;;6.50;4.70;;;;;;;13.97;nan;98986.22;5065547;28;20196;-80
2023/06/10 01:51:08;;;;;;;5.07;4.67;;;;;;;14.01;nan;98985.44;5062004;28;20224;-79
2023/06/10 01:53:35;;;;;;;5.03;4.63;;;;;;;14.05;nan;98983.03;5058742;28;20192;-79
2023/06/10 01:56:02;;;;;;;5.00;4.50;;;;;;;14.09;nan;98990.34;5061334;28;20189;-80
2023/06/10 01:58:29;;;;;;;5.20;4.80;;;;;;;14.14;nan;98991.50;5052530;28;20671;-80
2023/06/10 02:00:57;;;;;;;4.63;4.23;;;;;;;14.19;nan;98986.91;5059093;28;20181;-80
2023/06/10 02:03:24;;;;;;;5.03;4.63;;;;;;;14.16;nan;98986.63;5054785;28;20255;-80
2023/06/10 02:05:51;;;;;;;5.70;5.07;;;;;;;14.19;nan;98981.53;5059840;28;20277;-80
2023/06/10 02:08:18;;;;;;;4.97;4.57;;;;;;;14.22;nan;98981.03;5055085;28;20198;-80
2023/06/10 02:10:45;;;;;;;5.00;4.60;;;;;;;14.25;nan;98990.47;5074845;28;20188;-79
2023/06/10 02:13:11;;;;;;;7.80;5.17;;;;;;;14.22;nan;98989.13;5071746;28;20318;-79
2023/06/10 02:15:38;;;;;;;5.20;4.70;;;;;;;14.26;nan;98994.78;5066145;28;20185;-80
2023/06/10 02:18:05;;;;;;;6.77;5.03;;;;;;;14.29;nan;98991.56;5067531;28;20235;-80
2023/06/10 02:20:32;;;;;;;5.23;4.73;;;;;;;14.26;nan;98995.63;5060511;28;20245;-79
2023/06/10 02:22:59;;;;;;;5.70;5.00;;;;;;;14.43;nan;98990.09;5067737;28;20632;-79
2023/06/10 02:25:26;;;;;;;5.13;4.63;;;;;;;14.34;nan;98984.34;5076812;28;20197;-79
2023/06/10 02:27:53;;;;;;;5.73;5.23;;;;;;;14.35;nan;98993.25;5073780;28;20644;-80
2023/06/10 02:30:20;;;;;;;5.53;5.03;;;;;;;14.46;nan;98981.50;5067610;28;20181;-79
2023/06/10 02:32:47;;;;;;;5.40;5.00;;;;;;;14.47;nan;98983.91;5067991;28;20236;-79
2023/06/10 02:35:17;;;;;;;5.53;5.13;;;;;;;14.48;nan;98979.34;5067133;28;20197;-78
2023/06/10 02:37:44;;;;;;;6.57;5.00;;;;;;;14.49;nan;98992.56;5061794;28;20197;-80
2023/06/10 02:40:11;;;;;;;5.87;5.23;;;;;;;14.51;nan;98987.72;5056145;28;20189;-79
2023/06/10 02:42:38;;;;;;;5.63;5.03;;;;;;;14.52;nan;98980.44;5062103;28;20612;-81
2023/06/10 02:45:06;;;;;;;6.13;5.63;;;;;;;14.61;nan;98989.66;5041584;28;20197;-80
2023/06/10 02:47:39;;;;;;;5.90;5.40;;;;;;;14.83;nan;98987.63;5057990;28;20197;-79
2023/06/10 02:50:08;;;;;;;6.30;5.50;;;;;;;14.78;nan;98984.91;5057508;28;20649;-80
2023/06/10 02:52:43;;;;;;;6.40;5.10;;;;;;;14.74;nan;98988.41;5057636;28;20692;-80
2023/06/10 02:55:10;;;;;;;6.17;5.57;;;;;;;14.76;nan;98991.63;5057351;28;20178;-80
2023/06/10 02:57:42;;;;;;;5.77;5.33;;;;;;;14.74;nan;98991.91;5041984;28;20190;-81
2023/06/10 03:00:10;;;;;;;7.03;6.23;;;;;;;14.80;nan;98990.03;5040913;28;20186;-80
2023/06/10 03:02:39;;;;;;;6.33;5.70;;;;;;;14.83;nan;98987.63;5058129;28;20271;-81
2023/06/10 03:05:12;;;;;;;6.73;6.07;;;;;;;14.86;nan;98989.81;5057300;28;20336;-80
2023/06/10 03:07:43;;;;;;;6.93;6.23;;;;;;;14.89;nan;98989.25;5056877;28;20189;-81
2023/06/10 03:10:10;;;;;;;7.80;7.00;;;;;;;14.93;nan;98994.97;5056743;28;20237;-80
2023/06/10 03:12:39;;;;;;;6.47;5.90;;;;;;;14.96;nan;98995.25;5056488;28;20284;-80
2023/06/10 03:15:06;;;;;;;6.57;5.97;;;;;;;15.00;nan;99000.91;5056586;28;20186;-80
2023/06/10 03:17:34;;;;;;;7.33;6.73;;;;;;;15.05;nan;98995.53;5039533;28;20205;-81
2023/06/10 03:20:03;;;;;;;7.60;6.83;;;;;;;15.11;nan;98996.38;5038291;28;20720;-80
2023/06/10 03:22:30;;;;;;;7.87;6.87;;;;;;;15.16;nan;98996.41;5038703;28;20684;-80
2023/06/10 03:25:05;;;;;;;8.20;7.37;;;;;;;15.23;nan;99000.47;5055168;28;20193;-81
2023/06/10 03:27:35;;;;;;;7.40;6.80;;;;;;;15.29;nan;98994.03;5038182;28;20192;-81
2023/06/10 03:30:06;;;;;;;8.10;7.27;;;;;;;15.37;nan;98998.91;5038803;28;20282;-80
2023/06/10 03:32:33;;;;;;;7.93;6.97;;;;;;;15.42;nan;98995.41;5054550;28;20198;-80
2023/06/10 03:35:00;;;;;;;8.13;7.10;;;;;;;15.52;nan;99000.03;5054550;28;20280;-81
2023/06/10 03:37:29;;;;;;;8.20;7.50;;;;;;;15.62;nan;99000.06;5037939;28;20186;-81
2023/06/10 03:39:56;;;;;;;8.33;7.43;;;;;;;15.70;nan;99008.44;5054407;28;20562;-81
2023/06/10 03:42:23;;;;;;;8.30;7.60;;;;;;;15.75;nan;99003.06;5055731;28;20579;-81
2023/06/10 03:44:50;;;;;;;8.23;7.43;;;;;;;15.87;nan;99002.78;5054249;28;20657;-80
2023/06/10 03:47:16;;;;;;;8.80;7.90;;;;;;;15.95;nan;99006.88;5055225;28;20185;-81
2023/06/10 03:49:43;;;;;;;8.40;7.70;;;;;;;15.98;nan;99004.44;5054065;28;20309;-80
2023/06/10 03:52:11;;;;;;;8.90;8.07;;;;;;;16.04;nan;99002.53;5037785;28;20212;-81
2023/06/10 03:54:38;;;;;;;8.90;8.00;;;;;;;16.03;nan;99004.44;5066171;28;20230;-81
2023/06/10 03:57:05;;;;;;;10.03;9.03;;;;;;;16.11;nan;98995.78;5058782;28;20368;-81
2023/06/10 03:59:34;;;;;;;8.97;8.17;;;;;;;16.28;nan;99006.31;5037930;28;20238;-80
2023/06/10 04:02:01;;;;;;;9.87;9.03;;;;;;;16.29;nan;99006.03;5048263;28;20209;-80
2023/06/10 04:04:28;;;;;;;9.67;8.87;;;;;;;16.31;nan;99003.06;5028142;28;20269;-81
2023/06/10 04:06:54;;;;;;;9.33;8.43;;;;;;;16.35;nan;99000.63;5051852;28;20243;-81
2023/06/10 04:09:22;;;;;;;9.57;8.63;;;;;;;16.41;nan;99008.47;5061006;28;20371;-81
2023/06/10 04:11:48;;;;;;;9.73;8.93;;;;;;;16.43;nan;99006.28;5058787;28;20708;-79
2023/06/10 04:14:15;;;;;;;9.77;8.97;;;;;;;16.46;nan;99010.34;5054106;28;20199;-79
2023/06/10 04:16:43;;;;;;;9.87;8.97;;;;;;;16.53;nan;99025.22;5047436;28;20200;-79
2023/06/10 04:19:10;;;;;;;10.10;9.20;;;;;;;16.57;nan;99012.75;5067736;28;20230;-79
2023/06/10 04:21:37;;;;;;;10.67;9.67;;;;;;;16.65;nan;99011.44;5071752;28;20200;-80
2023/06/10 04:24:05;;;;;;;11.60;10.50;;;;;;;16.65;nan;99020.38;5063611;28;20219;-79
2023/06/10 04:26:33;;;;;;;11.50;10.40;;;;;;;16.80;nan;99019.50;5064264;28;20590;-78
2023/06/10 04:29:00;;;;;;;11.80;10.70;;;;;;;16.97;nan;99011.88;5052255;28;20230;-79
2023/06/10 04:31:28;;;;;;;12.03;10.93;;;;;;;17.17;nan;99014.50;5051201;28;20205;-79
2023/06/10 04:33:56;;;;;;;14.03;11.97;;;;;;;17.40;nan;99013.06;5052258;28;20198;-79
2023/06/10 04:36:23;;;;;;;13.43;12.17;;;;;;;17.36;nan;99011.97;5056119;28;20320;-79
2023/06/10 04:38:52;;;;;;;13.23;11.93;;;;;;;17.51;nan;99008.38;5041840;28;20200;-79
2023/06/10 04:41:19;;;;;;;14.20;12.90;;;;;;;17.63;nan;99003.47;5053549;28;20660;-79
2023/06/10 04:43:46;;;;;;;12.80;11.60;;;;;;;17.78;nan;99006.06;5059462;28;20289;-80
2023/06/10 04:46:13;;;;;;;12.93;11.73;;;;;;;17.89;nan;99006.81;5060193;28;20198;-80
2023/06/10 04:48:42;;;;;;;13.50;12.30;;;;;;;17.89;nan;99002.22;5048254;28;20201;-79
2023/06/10 04:51:08;;;;;;;12.87;11.70;;;;;;;17.87;nan;98996.25;5038350;28;20753;-79
2023/06/10 04:53:36;;;;;;;14.00;12.80;;;;;;;18.12;nan;99002.56;5052658;28;20200;-78
2023/06/10 04:56:02;;;;;;;13.30;12.10;;;;;;;18.32;nan;99002.41;5054031;28;20191;-79
2023/06/10 04:58:30;;;;;;;14.27;12.97;;;;;;;18.40;nan;99008.03;5062659;28;20194;-78
2023/06/10 05:00:56;;;;;;;13.80;12.47;;;;;;;18.55;nan;99011.72;5067878;28;20201;-78
2023/06/10 05:03:23;;;;;;;13.57;12.37;;;;;;;18.73;nan;99002.84;5065888;28;20209;-79
2023/06/10 05:05:50;;;;;;;13.93;12.63;;;;;;;18.92;nan;99001.81;5063856;28;20197;-79
2023/06/10 05:08:18;;;;;;;14.43;13.13;;;;;;;19.06;nan;99001.94;5064051;28;20203;-78
2023/06/10 05:10:44;;;;;;;13.73;12.63;;;;;;;19.08;nan;98999.75;5057694;28;20187;-78
2023/06/10 05:13:11;;;;;;;13.63;12.40;;;;;;;19.02;nan;99003.59;5064399;28;20674;-78
2023/06/10 05:15:38;;;;;;;12.90;11.80;;;;;;;19.06;nan;99007.34;5060471;28;20666;-78
2023/06/10 05:18:05;;;;;;;13.10;12.00;;;;;;;19.13;nan;99007.78;5062102;28;20646;-78
2023/06/10 05:20:31;;;;;;;13.07;11.80;;;;;;;19.03;nan;98999.81;5066383;28;20243;-78
2023/06/10 05:22:58;;;;;;;12.57;11.50;;;;;;;19.02;nan;98998.19;5054895;28;20204;-78
2023/06/10 05:25:26;;;;;;;13.17;12.07;;;;;;;19.14;nan;99004.00;5052341;28;20186;-79
2023/06/10 05:27:53;;;;;;;13.30;12.10;;;;;;;19.12;nan;98997.25;5046452;28;20191;-78
2023/06/10 05:30:21;;;;;;;13.20;12.10;;;;;;;19.23;nan;98990.56;5046661;28;20197;-78
2023/06/10 05:32:48;;;;;;;14.17;12.87;;;;;;;19.27;nan;98999.78;5056016;28;20189;-78
2023/06/10 05:35:15;;;;;;;14.23;12.83;;;;;;;19.24;nan;98989.47;5046744;28;20206;-78
2023/06/10 05:37:42;;;;;;;14.20;13.00;;;;;;;19.41;nan;98997.94;5046460;28;20243;-78
2023/06/10 05:40:09;;;;;;;14.03;12.73;;;;;;;19.43;nan;99001.19;5049178;28;20202;-78
2023/06/10 05:42:36;;;;;;;12.60;11.60;;;;;;;19.73;nan;98995.34;5048747;28;20198;-79
2023/06/10 05:45:03;;;;;;;13.57;12.33;;;;;;;20.06;nan;99009.78;5056657;28;20183;-79
2023/06/10 05:47:30;;;;;;;13.53;12.43;;;;;;;19.74;nan;99001.56;5048552;28;20195;-79
2023/06/10 05:49:57;;;;;;;13.17;11.97;;;;;;;19.97;nan;99008.81;5053109;28;20216;-79
2023/06/10 05:52:23;;;;;;;14.00;12.80;;;;;;;20.11;nan;99017.06;5046090;28;20186;-80
2023/06/10 05:54:50;;;;;;;13.60;12.27;;;;;;;20.11;nan;99022.50;5051613;28;20285;-80
2023/06/10 05:57:17;;;;;;;14.57;13.17;;;;;;;20.11;nan;99019.78;5052809;28;20198;-81
2023/06/10 05:59:44;;;;;;;13.47;12.13;;;;;;;19.99;nan;99022.13;5054657;28;20185;-81
2023/06/10 06:02:11;;;;;;;13.90;12.70;;;;;;;20.04;nan;99017.44;5060084;28;20216;-80
2023/06/10 06:04:37;;;;;;;13.53;12.23;;;;;;;19.95;nan;99021.94;5051771;28;20180;-81
2023/06/10 06:07:05;;;;;;;13.27;12.17;;;;;;;19.87;nan;99027.22;5051548;28;20200;-80
2023/06/10 06:09:32;;;;;;;13.67;12.53;;;;;;;19.70;nan;99020.38;5059741;28;20222;-81
2023/06/10 06:12:00;;;;;;;14.83;13.53;;;;;;;19.80;nan;99027.59;5061132;28;20204;-81
2023/06/10 06:14:30;;;;;;;14.97;13.47;;;;;;;19.91;nan;99030.97;5067091;28;20197;-82
2023/06/10 06:16:57;;;;;;;14.90;13.60;;;;;;;19.78;nan;99021.66;5035962;28;20196;-81
2023/06/10 06:19:24;;;;;;;14.17;12.87;;;;;;;19.93;nan;99023.31;5064977;28;20185;-80
2023/06/10 06:21:51;;;;;;;14.17;13.07;;;;;;;20.00;nan;99024.56;5062468;28;20249;-81
2023/06/10 06:24:18;;;;;;;15.20;13.90;;;;;;;20.03;nan;99023.16;5063638;28;20199;-81
2023/06/10 06:26:45;;;;;;;14.50;13.20;;;;;;;19.57;nan;99023.84;5056046;28;20188;-81
2023/06/10 06:29:11;;;;;;;13.93;12.73;;;;;;;19.66;nan;99026.69;5061110;28;20196;-80
2023/06/10 06:31:38;;;;;;;14.93;13.67;;;;;;;19.48;nan;99028.31;5057730;28;20184;-81
2023/06/10 06:34:05;;;;;;;15.40;13.90;;;;;;;19.46;nan;99018.81;5061659;28;20188;-80
2023/06/10 06:36:32;;;;;;;15.43;13.87;;;;;;;19.59;nan;99023.56;5050789;28;20295;-81
2023/06/10 06:38:59;;;;;;;14.27;12.93;;;;;;;19.63;nan;99030.00;5065710;28;20189;-81
2023/06/10 06:41:27;;;;;;;15.40;14.03;;;;;;;19.54;nan;99029.88;5061741;28;20212;-80
2023/06/10 06:43:54;;;;;;;14.83;13.50;;;;;;;19.44;nan;99026.47;5065363;28;20253;-81
2023/06/10 06:46:29;;;;;;;14.03;12.83;;;;;;;19.33;nan;99040.13;5069364;28;20249;-80
2023/06/10 06:48:56;;;;;;;15.30;13.93;;;;;;;19.51;nan;99032.34;5056193;28;20231;-80
2023/06/10 06:51:23;;;;;;;16.17;14.67;;;;;;;19.66;nan;99035.66;5054871;28;20283;-80
2023/06/10 06:53:51;;;;;;;15.73;14.43;;;;;;;20.07;nan;99025.00;5065695;28;20195;-81
2023/06/10 06:56:17;;;;;;;15.70;14.40;;;;;;;20.20;nan;99031.59;5057722;28;20180;-81
2023/06/10 06:58:44;;;;;;;15.87;14.43;;;;;;;20.28;nan;99035.53;5067417;28;20183;-79
2023/06/10 07:01:11;;;;;;;15.50;14.13;;;;;;;20.41;nan;99034.81;5075136;28;20234;-81
2023/06/10 07:03:38;;;;;;;15.63;14.23;;;;;;;20.78;nan;99039.31;5061546;28;20759;-80
2023/06/10 07:06:05;;;;;;;15.80;14.43;;;;;;;20.94;nan;99038.75;5058666;28;20653;-80
2023/06/10 07:08:31;;;;;;;15.23;13.83;;;;;;;20.93;nan;99045.31;5057661;28;20189;-80
2023/06/10 07:10:58;;;;;;;15.07;13.67;;;;;;;21.27;nan;99050.41;5068758;28;20192;-80
2023/06/10 07:13:25;;;;;;;15.53;14.13;;;;;;;21.22;nan;99044.22;5065145;28;20213;-80
2023/06/10 07:15:52;;;;;;;14.83;13.43;;;;;;;21.26;nan;99047.97;5060221;28;20192;-80
2023/06/10 07:18:19;;;;;;;14.67;13.27;;;;;;;21.23;nan;99049.34;5057236;28;20194;-79
2023/06/10 07:20:45;;;;;;;14.87;13.57;;;;;;;20.56;nan;99048.97;5065416;28;20247;-79
2023/06/10 07:23:12;;;;;;;15.47;14.07;;;;;;;20.67;nan;99051.53;5062679;28;20699;-80
2023/06/10 07:25:41;;;;;;;16.23;14.70;;;;;;;20.63;nan;99043.13;5054648;28;20195;-80
2023/06/10 07:28:08;;;;;;;15.50;14.00;;;;;;;20.77;nan;99048.59;5044691;28;20572;-79
2023/06/10 07:30:35;;;;;;;15.47;14.00;;;;;;;20.60;nan;99049.19;5056072;28;20182;-80
2023/06/10 07:33:02;;;;;;;15.67;14.20;;;;;;;20.58;nan;99048.66;5059670;28;20199;-80
2023/06/10 07:35:29;;;;;;;16.23;14.63;;;;;;;20.44;nan;99045.09;5053209;28;20190;-79
2023/06/10 07:37:55;;;;;;;16.50;14.87;;;;;;;20.31;nan;99051.28;5054154;28;20185;-79
2023/06/10 07:40:23;;;;;;;16.10;14.53;;;;;;;20.38;nan;99044.38;5054018;28;20209;-79
2023/06/10 07:42:50;;;;;;;16.90;15.37;;;;;;;20.14;nan;99060.78;5062918;28;20186;-79
2023/06/10 07:45:17;;;;;;;17.13;15.50;;;;;;;20.09;nan;99055.41;5054937;28;20732;-80
2023/06/10 07:47:43;;;;;;;17.00;15.40;;;;;;;19.87;nan;99063.38;5054023;28;20203;-79
2023/06/10 07:50:11;;;;;;;17.10;15.47;;;;;;;20.13;nan;99063.78;5052771;28;20221;-79
2023/06/10 07:52:37;;;;;;;19.27;17.47;;;;;;;20.25;nan;99055.19;5073557;28;20625;-77
2023/06/10 07:55:05;;;;;;;18.87;17.10;;;;;;;20.41;nan;99056.56;5073982;28;20185;-79
2023/06/10 07:57:34;;;;;;;19.07;17.27;;;;;;;20.45;nan;99058.41;5057746;28;20190;-79
2023/06/10 08:00:04;;;;;;;18.93;17.10;;;;;;;20.70;nan;99059.06;5048530;28;20216;-80
2023/06/10 08:02:38;;;;;;;18.97;17.10;;;;;;;21.20;nan;99060.06;5062335;28;20295;-80
2023/06/10 08:05:05;;;;;;;18.87;17.07;;;;;;;21.84;nan;99057.03;5059630;28;20225;-81
2023/06/10 08:07:32;;;;;;;17.90;16.27;;;;;;;22.16;nan;99052.56;5058604;28;20187;-80
2023/06/10 08:10:00;;;;;;;17.60;16.00;;;;;;;22.89;nan;99060.28;5060457;28;20267;-80
2023/06/10 08:12:27;;;;;;;17.80;16.10;;;;;;;22.37;nan;99048.19;5058124;28;20610;-80
2023/06/10 08:14:54;;;;;;;17.77;16.10;;;;;;;22.49;nan;99053.88;5040200;28;20235;-80
2023/06/10 08:17:22;;;;;;;18.23;16.42;;;;;;;21.88;nan;99054.53;5045925;28;20760;-80
2023/06/10 08:19:48;;;;;;;18.47;16.70;;;;;;;22.17;nan;99052.22;5042002;28;20697;-80
2023/06/10 08:22:15;;;;;;;18.40;16.52;;;;;;;22.57;nan;99058.63;5059669;28;20205;-80
2023/06/10 08:24:42;;;;;;;18.37;16.57;;;;;;;22.48;nan;99059.69;5048721;28;20219;-80
2023/06/10 08:27:10;;;;;;;18.95;17.00;;;;;;;22.21;nan;99060.63;5047336;28;20189;-80
2023/06/10 08:29:37;;;;;;;17.40;15.80;;;;;;;22.08;nan;99059.53;5052831;28;20255;-80
2023/06/10 08:32:04;;;;;;;18.63;16.92;;;;;;;21.70;nan;99064.44;5048108;28;20188;-80
2023/06/10 08:34:33;;;;;;;17.45;15.80;;;;;;;21.44;nan;99064.19;5051989;28;20192;-81
2023/06/10 08:37:00;;;;;;;18.00;16.27;;;;;;;21.42;nan;99062.88;5042879;28;20663;-80
2023/06/10 08:39:27;;;;;;;19.03;17.23;;;;;;;21.38;nan;99067.31;5052803;28;20207;-79
2023/06/10 08:42:25;;;;;;;18.93;17.23;;;;;;;21.13;nan;99068.66;5052085;28;20242;-80
2023/06/10 08:44:55;;;;;;;19.50;17.60;;;;;;;20.74;nan;99066.34;5056830;28;20555;-80
2023/06/10 08:47:24;;;;;;;18.47;16.77;;;;;;;21.12;nan;99074.34;5072896;28;20273;-80
2023/06/10 08:49:56;;;;;;;19.20;17.40;;;;;;;21.29;nan;99072.69;5072734;28;20226;-80
2023/06/10 08:52:24;;;;;;;17.77;16.17;;;;;;;21.26;nan;99077.94;5047118;28;20253;-80
2023/06/10 08:54:57;;;;;;;17.87;16.07;;;;;;;21.22;nan;99066.84;5051730;28;20200;-80
2023/06/10 08:57:25;;;;;;;17.33;15.73;;;;;;;20.97;nan;99072.72;5052755;28;20200;-80
2023/06/10 08:59:54;;;;;;;17.53;15.83;;;;;;;21.04;nan;99073.94;5068435;28;20559;-80
2023/06/10 09:02:21;;;;;;;16.80;15.30;;;;;;;20.87;nan;99068.28;5063788;28;20196;-79
2023/06/10 09:04:49;;;;;;;17.27;15.57;;;;;;;20.64;nan;99066.53;5060101;28;20205;-80
2023/06/10 09:07:16;;;;;;;17.37;15.77;;;;;;;20.47;nan;99067.09;5067829;28;20202;-80
2023/06/10 09:09:44;;;;;;;17.50;15.90;;;;;;;20.67;nan;99065.13;5068972;28;20218;-81
2023/06/10 09:12:13;;;;;;;17.77;16.17;;;;;;;20.98;nan;99069.72;5072169;28;20190;-81
2023/06/10 09:14:41;;;;;;;17.70;15.90;;;;;;;21.21;nan;99072.56;5061092;28;20191;-79
2023/06/10 09:17:08;;;;;;;17.60;15.98;;;;;;;21.38;nan;99080.94;5072056;28;20191;-79
2023/06/10 09:19:35;;;;;;;18.33;16.43;;;;;;;21.21;nan;99072.56;5072384;28;20194;-79
2023/06/10 09:22:02;;;;;;;17.07;15.57;;;;;;;21.33;nan;99068.22;5060218;28;20190;-80
2023/06/10 09:24:29;;;;;;;17.13;15.63;;;;;;;21.49;nan;99074.19;5050803;28;20584;-80
2023/06/10 09:27:07;;;;;;;16.77;15.17;;;;;;;21.81;nan;99070.50;5050793;28;20342;-79
2023/06/10 09:29:54;;;;;;;16.77;15.27;;;;;;;22.00;nan;99070.38;5052010;28;20197;-79
2023/06/10 09:32:21;;;;;;;15.70;14.27;;;;;;;21.83;nan;99073.75;5060492;28;20276;-81
2023/06/10 09:34:49;;;;;;;17.83;16.23;;;;;;;21.65;nan;99077.41;5058846;28;20206;-80
2023/06/10 09:37:23;;;;;;;17.75;15.95;;;;;;;21.50;nan;99078.53;5052164;28;20288;-80
2023/06/10 09:40:06;;;;;;;17.75;15.95;;;;;;;21.28;nan;99084.69;5055998;28;20195;-81
2023/06/10 09:42:38;;;;;;;18.52;16.83;;;;;;;21.24;nan;99074.69;5057091;28;20205;-82
2023/06/10 09:45:06;;;;;;;18.27;16.58;;;;;;;21.20;nan;99088.13;5052745;28;20542;-80
2023/06/10 09:47:33;;;;;;;18.23;16.42;;;;;;;21.43;nan;99080.84;5052021;28;20185;-79
2023/06/10 09:50:00;;;;;;;17.50;15.82;;;;;;;21.83;nan;99074.53;5059038;28;20205;-80
2023/06/10 09:52:29;;;;;;;16.70;15.20;;;;;;;22.14;nan;99074.69;5057297;28;20184;-80
2023/06/10 09:55:00;;;;;;;16.35;14.93;;;;;;;22.39;nan;99071.34;5054707;28;20245;-80
2023/06/10 09:57:35;;;;;;;16.48;15.07;;;;;;;22.67;nan;99072.00;5058799;28;20185;-80
2023/06/10 10:00:10;;;;;;;16.33;14.93;;;;;;;22.72;nan;99069.16;5052562;28;20193;-80
2023/06/10 10:02:50;;;;;;;15.88;14.55;;;;;;;23.00;nan;99069.00;5052138;28;20200;-80
2023/06/10 10:05:22;;;;;;;16.35;14.55;;;;;;;23.40;nan;99080.72;5052717;28;20217;-80
2023/06/10 10:07:49;;;;;;;15.80;14.40;;;;;;;23.65;nan;99069.09;5054644;28;20663;-81
2023/06/10 10:10:17;;;;;;;15.40;14.00;;;;;;;24.19;nan;99073.19;5051624;28;20236;-81
2023/06/10 10:12:46;;;;;;;15.32;13.95;;;;;;;24.81;nan;99062.63;5051278;28;20200;-81
2023/06/10 10:15:16;;;;;;;15.43;14.02;;;;;;;24.84;nan;99056.47;5051595;28;20189;-80
2023/06/10 10:17:49;;;;;;;13.98;12.77;;;;;;;24.91;nan;99061.50;5055579;28;20191;-81
2023/06/10 10:20:18;;;;;;;15.63;14.23;;;;;;;24.88;nan;99051.19;5054226;28;20196;-80
2023/06/10 10:22:47;;;;;;;15.27;13.88;;;;;;;24.86;nan;99050.69;5052507;28;20194;-80
2023/06/10 10:25:16;;;;;;;15.43;14.00;;;;;;;24.43;nan;99054.31;5053133;28;20213;-80
2023/06/10 10:27:52;;;;;;;14.90;13.65;;;;;;;24.67;nan;99042.03;5049962;28;20186;-81
2023/06/10 10:30:20;;;;;;;14.75;13.43;;;;;;;24.73;nan;99035.25;5053646;28;20195;-80
2023/06/10 10:33:33;;;;;;;15.25;13.77;;;;;;;24.96;nan;99036.66;5055702;28;20182;-81
2023/06/10 10:36:00;;;;;;;15.35;14.00;;;;;;;25.18;nan;99043.81;5036195;28;20203;-80
2023/06/10 10:38:28;;;;;;;14.10;12.90;;;;;;;25.55;nan;99037.50;5021981;28;20194;-81
2023/06/10 10:40:59;;;;;;;14.27;12.98;;;;;;;25.96;nan;99030.44;5055301;28;20242;-81
2023/06/10 10:43:27;;;;;;;14.23;12.98;;;;;;;25.85;nan;99028.09;5055820;28;20196;-81
2023/06/10 10:45:59;;;;;;;15.15;13.82;;;;;;;26.88;nan;99031.84;5054684;28;20184;-81
2023/06/10 10:48:29;;;;;;;13.65;12.35;;;;;;;26.83;nan;99023.00;5037109;28;20201;-80
2023/06/10 10:50:57;;;;;;;12.45;11.20;;;;;;;27.24;nan;99022.03;5035852;28;20227;-80
2023/06/10 10:53:25;;;;;;;12.40;11.40;;;;;;;27.28;nan;99018.22;5050848;28;20194;-80
2023/06/10 10:55:59;;;;;;;11.68;10.57;;;;;;;26.76;nan;99017.25;5050182;28;20577;-79
2023/06/10 10:58:26;;;;;;;10.80;9.80;;;;;;;26.80;nan;99015.41;5057029;28;20563;-79
2023/06/10 11:00:53;;;;;;;11.00;10.00;;;;;;;26.87;nan;99001.97;5053110;28;20730;-79
2023/06/10 11:03:20;;;;;;;10.77;9.77;;;;;;;27.10;nan;99000.38;5058540;28;20193;-79
2023/06/10 11:05:48;;;;;;;10.68;9.77;;;;;;;27.64;nan;99006.41;5053856;28;20548;-79
2023/06/10 11:08:42;;;;;;;10.38;9.57;;;;;;;27.85;nan;99001.56;5059263;28;20193;-78
2023/06/10 11:11:23;;;;;;;10.48;9.68;;;;;;;27.87;nan;98995.69;5057683;28;20193;-79
2023/06/10 11:14:04;;;;;;;10.32;9.52;;;;;;;27.66;nan;98995.88;5059416;28;20672;-79
2023/06/10 11:16:38;;;;;;;10.18;9.32;;;;;;;26.88;nan;98990.59;5056219;28;20193;-79
2023/06/10 11:19:05;;;;;;;10.77;9.85;;;;;;;27.35;nan;98990.13;5056885;28;20248;-79
2023/06/10 11:21:45;;;;;;;10.45;9.55;;;;;;;27.12;nan;98987.88;5060880;28;20182;-78
2023/06/10 11:24:13;;;;;;;10.07;9.30;;;;;;;27.24;nan;98972.53;5059877;28;20209;-79
2023/06/10 11:26:44;;;;;;;10.65;9.75;;;;;;;27.45;nan;98981.41;5061713;28;20194;-79
2023/06/10 11:29:11;;;;;;;10.05;9.18;;;;;;;27.66;nan;98973.84;5060230;28;20569;-80
2023/06/10 11:31:43;;;;;;;9.75;8.95;;;;;;;27.39;nan;98972.59;5065826;28;20191;-79
2023/06/10 11:34:10;;;;;;;10.70;9.60;;;;;;;27.01;nan;98972.19;5053459;28;20578;-79
2023/06/10 11:36:40;;;;;;;10.52;9.63;;;;;;;27.63;nan;98971.78;5054460;28;20205;-79
2023/06/10 11:39:07;;;;;;;10.32;9.43;;;;;;;27.55;nan;98965.28;5056898;28;20434;-79
2023/06/10 11:41:35;;;;;;;9.60;8.90;;;;;;;28.25;nan;98962.16;5053712;28;20190;-79
2023/06/10 11:44:08;;;;;;;9.98;9.18;;;;;;;27.35;nan;98959.88;5057309;28;20206;-79
2023/06/10 11:46:35;;;;;;;9.35;8.55;;;;;;;27.00;nan;98962.34;5051463;28;20202;-79